Terminal Aerodrome Forecast
Issued by NWS Knoxville/Tri Cities, TN

Home | Current Version | Previous Version | Text Only | Print | Product List | Glossary On
Versions: 1 2 3 4 5 6 7 8 9 10 11 12 13 14 15 16 17 18 19 20 21 22 23 24 25 26 27 28
000
FTUS44 KMRX 302324
TAFTRI
TAF
KTRI 302324Z 0100/0124 25010KT P6SM VCSH SCT030 SCT140 BKN200
     FM010300 25005KT P6SM BKN250
     FM010800 00000KT 4SM BR SCT010 BKN022
     FM011400 25008KT P6SM SCT040 BKN150
     FM011800 25011KT P6SM BKN250=

USA.gov is the U.S. government's official web portal to all federal, state and local government web resources and services.